sensor_id;sensor_type;location;lat;lon;timestamp;pressure;altitude;pressure_sealevel;temperature;humidity
67397;BME280;57728;50.448;18.824;2023-04-05T00:00:17;98216.09;;;-1.45;52.35
67397;BME280;57728;50.448;18.824;2023-04-05T00:02:20;98321.00;;;-0.79;52.58
67397;BME280;57728;50.448;18.824;2023-04-05T00:04:24;98359.00;;;-0.57;52.71
67397;BME280;57728;50.448;18.824;2023-04-05T00:06:27;98342.84;;;-0.65;52.81
67397;BME280;57728;50.448;18.824;2023-04-05T00:08:30;98382.63;;;-0.35;52.96
67397;BME280;57728;50.448;18.824;2023-04-05T00:10:32;98388.50;;;-0.31;52.84
67397;BME280;57728;50.448;18.824;2023-04-05T00:12:33;98385.84;;;-0.31;52.93
67397;BME280;57728;50.448;18.824;2023-04-05T00:14:35;98382.31;;;-0.31;52.87
67397;BME280;57728;50.448;18.824;2023-04-05T00:16:36;98304.97;;;-0.79;52.81
67397;BME280;57728;50.448;18.824;2023-04-05T00:18:38;98346.84;;;-0.52;52.83
67397;BME280;57728;50.448;18.824;2023-04-05T00:20:40;98360.81;;;-0.40;52.44
67397;BME280;57728;50.448;18.824;2023-04-05T00:22:41;98340.34;;;-0.49;52.44
67397;BME280;57728;50.448;18.824;2023-04-05T00:24:44;98380.19;;;-0.28;52.40
67397;BME280;57728;50.448;18.824;2023-04-05T00:26:46;98381.00;;;-0.27;52.34
67397;BME280;57728;50.448;18.824;2023-04-05T00:28:48;98197.47;;;-1.36;52.16
67397;BME280;57728;50.448;18.824;2023-04-05T00:30:51;98292.97;;;-0.75;52.15
67397;BME280;57728;50.448;18.824;2023-04-05T00:32:53;98369.00;;;-0.23;52.09
67397;BME280;57728;50.448;18.824;2023-04-05T00:34:55;98362.66;;;-0.22;51.90
67397;BME280;57728;50.448;18.824;2023-04-05T00:36:56;98296.25;;;-0.63;51.82
67397;BME280;57728;50.448;18.824;2023-04-05T00:38:58;98327.88;;;-0.40;51.96
67397;BME280;57728;50.448;18.824;2023-04-05T00:41:00;98275.88;;;-0.82;51.78
67397;BME280;57728;50.448;18.824;2023-04-05T00:43:01;98363.88;;;-0.16;52.02
67397;BME280;57728;50.448;18.824;2023-04-05T00:45:03;98268.84;;;-0.83;51.86
67397;BME280;57728;50.448;18.824;2023-04-05T00:47:06;98305.06;;;-0.71;52.02
67397;BME280;57728;50.448;18.824;2023-04-05T00:49:07;98245.16;;;-0.96;52.01
67397;BME280;57728;50.448;18.824;2023-04-05T00:51:10;98364.63;;;-0.24;52.14
67397;BME280;57728;50.448;18.824;2023-04-05T00:53:11;98305.81;;;-0.60;52.01
67397;BME280;57728;50.448;18.824;2023-04-05T00:55:14;98339.72;;;-0.43;52.12
67397;BME280;57728;50.448;18.824;2023-04-05T00:57:18;98366.31;;;-0.23;52.24
67397;BME280;57728;50.448;18.824;2023-04-05T00:59:20;98232.38;;;-1.02;52.08
67397;BME280;57728;50.448;18.824;2023-04-05T01:01:24;98244.38;;;-0.88;52.25
67397;BME280;57728;50.448;18.824;2023-04-05T01:03:31;98307.09;;;-0.46;52.28
67397;BME280;57728;50.448;18.824;2023-04-05T01:05:49;98358.38;;;-0.15;52.21
67397;BME280;57728;50.448;18.824;2023-04-05T01:10:34;98329.59;;;-0.13;52.05
67397;BME280;57728;50.448;18.824;2023-04-05T01:12:39;98316.69;;;-0.18;52.05
67397;BME280;57728;50.448;18.824;2023-04-05T01:14:46;98335.03;;;-0.05;51.95
67397;BME280;57728;50.448;18.824;2023-04-05T01:16:51;98337.53;;;-0.03;51.81
67397;BME280;57728;50.448;18.824;2023-04-05T01:18:57;98298.13;;;-0.19;51.55
67397;BME280;57728;50.448;18.824;2023-04-05T01:26:30;98327.19;;;0.20;51.40
67397;BME280;57728;50.448;18.824;2023-04-05T01:32:02;98328.56;;;0.32;50.88
67397;BME280;57728;50.448;18.824;2023-04-05T01:36:43;98155.66;;;-0.65;50.74
67397;BME280;57728;50.448;18.824;2023-04-05T01:38:55;98303.41;;;0.17;50.64
67397;BME280;57728;50.448;18.824;2023-04-05T01:40:58;98267.84;;;0.07;50.48
67397;BME280;57728;50.448;18.824;2023-04-05T01:43:02;98315.72;;;0.36;50.57
67397;BME280;57728;50.448;18.824;2023-04-05T01:45:03;98233.41;;;-0.14;50.52
67397;BME280;57728;50.448;18.824;2023-04-05T01:47:06;98275.94;;;0.15;50.75
67397;BME280;57728;50.448;18.824;2023-04-05T01:49:08;98153.53;;;-0.62;50.67
67397;BME280;57728;50.448;18.824;2023-04-05T01:51:09;98245.38;;;-0.01;50.71
67397;BME280;57728;50.448;18.824;2023-04-05T01:53:10;98324.97;;;0.42;50.62
67397;BME280;57728;50.448;18.824;2023-04-05T01:55:13;98268.22;;;0.12;50.88
67397;BME280;57728;50.448;18.824;2023-04-05T01:57:14;98265.53;;;0.12;50.84
67397;BME280;57728;50.448;18.824;2023-04-05T01:59:15;98226.25;;;-0.14;51.16
67397;BME280;57728;50.448;18.824;2023-04-05T02:01:17;98320.75;;;0.39;50.91
67397;BME280;57728;50.448;18.824;2023-04-05T02:03:18;98202.38;;;-0.33;51.05
67397;BME280;57728;50.448;18.824;2023-04-05T02:05:20;98107.38;;;-0.90;51.04
67397;BME280;57728;50.448;18.824;2023-04-05T02:07:22;98266.78;;;-0.01;51.33
67397;BME280;57728;50.448;18.824;2023-04-05T02:09:24;98316.16;;;0.23;51.51
67397;BME280;57728;50.448;18.824;2023-04-05T02:11:25;98312.28;;;0.17;51.56
67397;BME280;57728;50.448;18.824;2023-04-05T02:13:32;98286.53;;;-0.02;51.58
67397;BME280;57728;50.448;18.824;2023-04-05T02:15:33;98211.13;;;-0.49;51.94
67397;BME280;57728;50.448;18.824;2023-04-05T02:17:35;98294.44;;;0.00;51.98
67397;BME280;57728;50.448;18.824;2023-04-05T02:19:40;98290.88;;;-0.01;52.10
67397;BME280;57728;50.448;18.824;2023-04-05T02:21:42;98266.22;;;-0.12;52.09
67397;BME280;57728;50.448;18.824;2023-04-05T02:23:43;98314.13;;;0.17;52.32
67397;BME280;57728;50.448;18.824;2023-04-05T02:25:46;98308.88;;;0.15;52.26
67397;BME280;57728;50.448;18.824;2023-04-05T02:27:47;98303.03;;;0.12;52.43
67397;BME280;57728;50.448;18.824;2023-04-05T02:29:48;98276.06;;;-0.13;52.29
67397;BME280;57728;50.448;18.824;2023-04-05T02:31:51;98222.97;;;-0.52;52.07
67397;BME280;57728;50.448;18.824;2023-04-05T02:33:52;98311.56;;;-0.11;52.14
67397;BME280;57728;50.448;18.824;2023-04-05T02:35:55;98208.56;;;-0.77;52.45
67397;BME280;57728;50.448;18.824;2023-04-05T02:37:57;98299.03;;;-0.28;52.66
67397;BME280;57728;50.448;18.824;2023-04-05T02:39:59;98217.22;;;-1.01;52.55
67397;BME280;57728;50.448;18.824;2023-04-05T02:42:00;98264.25;;;-0.73;52.77
67397;BME280;57728;50.448;18.824;2023-04-05T02:44:02;98056.44;;;-2.05;52.91
67397;BME280;57728;50.448;18.824;2023-04-05T02:46:04;98151.16;;;-1.45;53.21
67397;BME280;57728;50.448;18.824;2023-04-05T02:48:07;98271.50;;;-0.83;53.52
67397;BME280;57728;50.448;18.824;2023-04-05T02:50:10;98301.75;;;-0.64;53.70
67397;BME280;57728;50.448;18.824;2023-04-05T02:52:16;98130.88;;;-1.84;53.76
67397;BME280;57728;50.448;18.824;2023-04-05T02:54:20;98209.31;;;-1.21;54.03
67397;BME280;57728;50.448;18.824;2023-04-05T02:56:22;98263.72;;;-0.94;54.29
67397;BME280;57728;50.448;18.824;2023-04-05T02:58:25;98289.91;;;-0.80;54.51
67397;BME280;57728;50.448;18.824;2023-04-05T03:00:26;98292.59;;;-0.80;54.73
67397;BME280;57728;50.448;18.824;2023-04-05T03:02:31;98280.72;;;-0.95;54.95
67397;BME280;57728;50.448;18.824;2023-04-05T03:04:33;98292.19;;;-0.85;55.17
67397;BME280;57728;50.448;18.824;2023-04-05T03:06:37;98110.91;;;-1.98;55.22
67397;BME280;57728;50.448;18.824;2023-04-05T03:08:42;98299.84;;;-0.90;55.57
67397;BME280;57728;50.448;18.824;2023-04-05T03:10:51;98271.78;;;-1.04;55.54
67397;BME280;57728;50.448;18.824;2023-04-05T03:12:52;98056.66;;;-2.44;55.69
67397;BME280;57728;50.448;18.824;2023-04-05T03:14:58;98219.84;;;-1.38;55.75
67397;BME280;57728;50.448;18.824;2023-04-05T03:17:00;98291.13;;;-0.92;55.87
67397;BME280;57728;50.448;18.824;2023-04-05T03:19:10;98286.63;;;-0.92;55.95
67397;BME280;57728;50.448;18.824;2023-04-05T03:21:16;98252.16;;;-1.13;56.24
67397;BME280;57728;50.448;18.824;2023-04-05T03:23:28;98294.50;;;-0.90;56.38
67397;BME280;57728;50.448;18.824;2023-04-05T03:25:33;98234.34;;;-1.22;56.32
67397;BME280;57728;50.448;18.824;2023-04-05T03:27:38;98216.19;;;-1.36;56.51
67397;BME280;57728;50.448;18.824;2023-04-05T03:29:46;98257.88;;;-1.08;56.63
67397;BME280;57728;50.448;18.824;2023-04-05T03:31:51;98236.28;;;-1.14;56.67
67397;BME280;57728;50.448;18.824;2023-04-05T03:33:56;98047.47;;;-2.32;56.56
67397;BME280;57728;50.448;18.824;2023-04-05T03:36:03;98248.06;;;-1.07;56.92
67397;BME280;57728;50.448;18.824;2023-04-05T03:38:09;98259.09;;;-1.02;56.93
67397;BME280;57728;50.448;18.824;2023-04-05T03:40:16;98286.56;;;-0.82;56.91
67397;BME280;57728;50.448;18.824;2023-04-05T03:42:17;98171.59;;;-1.54;56.86
67397;BME280;57728;50.448;18.824;2023-04-05T03:44:19;98286.56;;;-0.82;57.11
67397;BME280;57728;50.448;18.824;2023-04-05T03:46:21;98105.09;;;-1.93;56.92
67397;BME280;57728;50.448;18.824;2023-04-05T03:48:22;98283.19;;;-0.84;57.23
67397;BME280;57728;50.448;18.824;2023-04-05T03:50:25;98246.22;;;-1.07;57.22
67397;BME280;57728;50.448;18.824;2023-04-05T03:52:27;98280.66;;;-0.85;57.21
67397;BME280;57728;50.448;18.824;2023-04-05T03:54:29;98029.84;;;-2.43;57.17
67397;BME280;57728;50.448;18.824;2023-04-05T03:56:33;98287.31;;;-0.90;57.37
67397;BME280;57728;50.448;18.824;2023-04-05T03:58:44;98245.69;;;-1.10;57.60
67397;BME280;57728;50.448;18.824;2023-04-05T04:00:46;98224.97;;;-1.26;57.45
67397;BME280;57728;50.448;18.824;2023-04-05T04:02:53;98277.91;;;-0.94;57.65
67397;BME280;57728;50.448;18.824;2023-04-05T04:04:56;98200.75;;;-1.43;57.80
67397;BME280;57728;50.448;18.824;2023-04-05T04:06:58;98274.56;;;-0.96;58.02
67397;BME280;57728;50.448;18.824;2023-04-05T04:09:01;98080.50;;;-2.15;57.93
67397;BME280;57728;50.448;18.824;2023-04-05T04:11:05;98269.88;;;-0.94;57.92
67397;BME280;57728;50.448;18.824;2023-04-05T04:13:12;98276.59;;;-0.90;58.05
67397;BME280;57728;50.448;18.824;2023-04-05T04:15:14;98248.19;;;-1.09;58.14
67397;BME280;57728;50.448;18.824;2023-04-05T04:17:37;98168.94;;;-1.54;57.95
67397;BME280;57728;50.448;18.824;2023-04-05T04:19:58;98242.56;;;-1.06;57.89
67397;BME280;57728;50.448;18.824;2023-04-05T04:22:39;98245.59;;;-1.00;57.92
67397;BME280;57728;50.448;18.824;2023-04-05T04:24:59;98260.41;;;-0.88;57.84
67397;BME280;57728;50.448;18.824;2023-04-05T04:27:22;98281.97;;;-0.72;57.87
67397;BME280;57728;50.448;18.824;2023-04-05T04:29:43;98298.53;;;-0.68;57.85
67397;BME280;57728;50.448;18.824;2023-04-05T04:32:09;98295.72;;;-0.66;57.87
67397;BME280;57728;50.448;18.824;2023-04-05T04:34:33;98254.75;;;-0.85;57.91
67397;BME280;57728;50.448;18.824;2023-04-05T04:36:50;98262.88;;;-0.77;57.96
67397;BME280;57728;50.448;18.824;2023-04-05T04:39:35;98254.41;;;-0.90;57.83
67397;BME280;57728;50.448;18.824;2023-04-05T04:42:15;98180.91;;;-1.22;57.87
67397;BME280;57728;50.448;18.824;2023-04-05T04:44:34;98223.63;;;-0.94;57.96
67397;BME280;57728;50.448;18.824;2023-04-05T04:46:48;98276.47;;;-0.52;57.93
67397;BME280;57728;50.448;18.824;2023-04-05T04:49:20;98201.16;;;-1.01;58.09
67397;BME280;57728;50.448;18.824;2023-04-05T04:51:23;98287.53;;;-0.47;57.90
67397;BME280;57728;50.448;18.824;2023-04-05T04:53:24;98221.03;;;-0.86;58.03
67397;BME280;57728;50.448;18.824;2023-04-05T04:55:26;98286.06;;;-0.41;58.02
67397;BME280;57728;50.448;18.824;2023-04-05T04:57:29;98257.19;;;-0.56;57.91
67397;BME280;57728;50.448;18.824;2023-04-05T04:59:30;98256.59;;;-0.49;58.05
67397;BME280;57728;50.448;18.824;2023-04-05T05:01:32;98285.38;;;-0.25;57.98
67397;BME280;57728;50.448;18.824;2023-04-05T05:03:36;98262.84;;;-0.41;57.82
67397;BME280;57728;50.448;18.824;2023-04-05T05:05:42;98110.94;;;-1.26;57.63
67397;BME280;57728;50.448;18.824;2023-04-05T05:07:54;98286.28;;;-0.16;57.44
67397;BME280;57728;50.448;18.824;2023-04-05T05:09:56;98294.16;;;-0.15;57.51
67397;BME280;57728;50.448;18.824;2023-04-05T05:11:57;98230.28;;;-0.54;57.54
67397;BME280;57728;50.448;18.824;2023-04-05T05:14:01;98295.50;;;-0.11;57.62
67397;BME280;57728;50.448;18.824;2023-04-05T05:16:03;98297.31;;;-0.11;57.63
67397;BME280;57728;50.448;18.824;2023-04-05T05:18:08;98294.97;;;-0.14;57.29
67397;BME280;57728;50.448;18.824;2023-04-05T05:20:10;98296.13;;;-0.17;57.37
67397;BME280;57728;50.448;18.824;2023-04-05T05:22:15;98176.50;;;-1.13;57.43
67397;BME280;57728;50.448;18.824;2023-04-05T05:24:16;98212.94;;;-0.76;57.60
67397;BME280;57728;50.448;18.824;2023-04-05T05:26:17;98302.56;;;-0.28;57.72
67397;BME280;57728;50.448;18.824;2023-04-05T05:28:23;98213.38;;;-0.81;57.74
67397;BME280;57728;50.448;18.824;2023-04-05T05:30:26;98256.06;;;-0.53;57.80
67397;BME280;57728;50.448;18.824;2023-04-05T05:32:28;98302.25;;;-0.25;57.96
67397;BME280;57728;50.448;18.824;2023-04-05T05:34:30;98198.78;;;-0.87;57.92
67397;BME280;57728;50.448;18.824;2023-04-05T05:36:33;98255.59;;;-0.48;58.10
67397;BME280;57728;50.448;18.824;2023-04-05T05:38:35;98219.16;;;-0.67;58.01
67397;BME280;57728;50.448;18.824;2023-04-05T05:40:37;98271.22;;;-0.36;57.97
67397;BME280;57728;50.448;18.824;2023-04-05T05:42:39;98255.81;;;-0.42;57.81
67397;BME280;57728;50.448;18.824;2023-04-05T05:44:40;98235.97;;;-0.57;57.77
67397;BME280;57728;50.448;18.824;2023-04-05T05:46:42;98305.84;;;-0.16;57.90
67397;BME280;57728;50.448;18.824;2023-04-05T05:48:43;98275.59;;;-0.35;58.00
67397;BME280;57728;50.448;18.824;2023-04-05T05:50:44;98129.56;;;-1.16;58.15
67397;BME280;57728;50.448;18.824;2023-04-05T05:52:49;98316.22;;;-0.13;58.04
67397;BME280;57728;50.448;18.824;2023-04-05T05:54:50;98276.41;;;-0.34;58.13
67397;BME280;57728;50.448;18.824;2023-04-05T05:56:52;98313.53;;;-0.13;58.48
67397;BME280;57728;50.448;18.824;2023-04-05T05:58:54;98305.91;;;-0.08;58.66
67397;BME280;57728;50.448;18.824;2023-04-05T06:00:55;98305.59;;;-0.05;58.58
67397;BME280;57728;50.448;18.824;2023-04-05T06:02:57;98280.69;;;-0.23;58.75
67397;BME280;57728;50.448;18.824;2023-04-05T06:05:00;98310.63;;;-0.02;58.77
67397;BME280;57728;50.448;18.824;2023-04-05T06:07:02;98314.97;;;-0.01;58.55
67397;BME280;57728;50.448;18.824;2023-04-05T06:09:04;98259.59;;;-0.26;58.91
67397;BME280;57728;50.448;18.824;2023-04-05T06:11:06;98271.03;;;-0.16;59.03
67397;BME280;57728;50.448;18.824;2023-04-05T06:13:07;98276.47;;;-0.08;58.86
67397;BME280;57728;50.448;18.824;2023-04-05T06:15:08;98268.75;;;-0.11;58.96
67397;BME280;57728;50.448;18.824;2023-04-05T06:17:11;98275.69;;;0.00;58.92
67397;BME280;57728;50.448;18.824;2023-04-05T06:19:13;98306.97;;;0.26;58.88
67397;BME280;57728;50.448;18.824;2023-04-05T06:21:15;98271.06;;;0.10;58.96
67397;BME280;57728;50.448;18.824;2023-04-05T06:23:17;98304.34;;;0.34;58.88
67397;BME280;57728;50.448;18.824;2023-04-05T06:25:18;98306.53;;;0.39;58.80
67397;BME280;57728;50.448;18.824;2023-04-05T06:27:19;98212.16;;;-0.16;58.88
67397;BME280;57728;50.448;18.824;2023-04-05T06:29:21;98304.41;;;0.50;59.00
67397;BME280;57728;50.448;18.824;2023-04-05T06:31:30;98305.97;;;0.61;58.88
67397;BME280;57728;50.448;18.824;2023-04-05T06:33:33;98303.50;;;0.68;58.82
67397;BME280;57728;50.448;18.824;2023-04-05T06:35:35;98213.69;;;0.21;59.08
67397;BME280;57728;50.448;18.824;2023-04-05T06:37:36;98303.22;;;0.88;58.93
67397;BME280;57728;50.448;18.824;2023-04-05T06:39:37;98124.56;;;-0.14;58.54
67397;BME280;57728;50.448;18.824;2023-04-05T06:41:40;98171.72;;;0.22;58.37
67397;BME280;57728;50.448;18.824;2023-04-05T06:43:41;98310.66;;;1.10;58.29
67397;BME280;57728;50.448;18.824;2023-04-05T06:45:42;98281.16;;;1.02;58.42
67397;BME280;57728;50.448;18.824;2023-04-05T06:47:44;98258.06;;;1.09;58.46
67397;BME280;57728;50.448;18.824;2023-04-05T06:49:46;98297.81;;;1.38;58.36
67397;BME280;57728;50.448;18.824;2023-04-05T06:51:48;98141.69;;;0.53;58.11
67397;BME280;57728;50.448;18.824;2023-04-05T06:53:50;98305.38;;;1.60;57.79
67397;BME280;57728;50.448;18.824;2023-04-05T06:55:54;98261.75;;;1.41;57.76
67397;BME280;57728;50.448;18.824;2023-04-05T06:57:56;98281.56;;;1.57;57.65
67397;BME280;57728;50.448;18.824;2023-04-05T06:59:58;98298.16;;;1.85;57.68
67397;BME280;57728;50.448;18.824;2023-04-05T07:01:59;98268.63;;;1.77;57.46
67397;BME280;57728;50.448;18.824;2023-04-05T07:04:00;98257.41;;;1.81;57.36
67397;BME280;57728;50.448;18.824;2023-04-05T07:06:03;98249.84;;;1.85;57.17
67397;BME280;57728;50.448;18.824;2023-04-05T07:08:04;98283.69;;;2.19;57.00
67397;BME280;57728;50.448;18.824;2023-04-05T07:10:06;98303.13;;;2.37;56.64
67397;BME280;57728;50.448;18.824;2023-04-05T07:12:09;98284.50;;;2.36;56.49
67397;BME280;57728;50.448;18.824;2023-04-05T07:14:11;98277.97;;;2.30;56.14
67397;BME280;57728;50.448;18.824;2023-04-05T07:16:12;98301.41;;;2.53;55.93
67397;BME280;57728;50.448;18.824;2023-04-05T07:18:14;98301.03;;;2.64;56.15
67397;BME280;57728;50.448;18.824;2023-04-05T07:20:15;98234.97;;;2.30;55.65
67397;BME280;57728;50.448;18.824;2023-04-05T07:22:17;98305.00;;;2.85;55.57
67397;BME280;57728;50.448;18.824;2023-04-05T07:24:19;98225.53;;;2.43;55.20
67397;BME280;57728;50.448;18.824;2023-04-05T07:26:20;98274.91;;;2.81;54.94
67397;BME280;57728;50.448;18.824;2023-04-05T07:28:22;98286.53;;;3.13;54.98
67397;BME280;57728;50.448;18.824;2023-04-05T07:30:26;98305.34;;;3.44;54.51
67397;BME280;57728;50.448;18.824;2023-04-05T07:32:27;98276.41;;;3.47;53.68
67397;BME280;57728;50.448;18.824;2023-04-05T07:34:29;98299.00;;;3.84;53.23
67397;BME280;57728;50.448;18.824;2023-04-05T07:36:31;98294.44;;;4.07;52.09
67397;BME280;57728;50.448;18.824;2023-04-05T07:38:32;98134.81;;;3.22;51.84
67397;BME280;57728;50.448;18.824;2023-04-05T07:40:34;98023.28;;;2.87;50.33
67397;BME280;57728;50.448;18.824;2023-04-05T07:42:36;98227.25;;;4.36;49.28
67397;BME280;57728;50.448;18.824;2023-04-05T07:44:37;98301.78;;;5.03;48.79
67397;BME280;57728;50.448;18.824;2023-04-05T07:46:38;98267.94;;;5.01;48.23
67397;BME280;57728;50.448;18.824;2023-04-05T07:48:45;98152.88;;;4.41;47.25
67397;BME280;57728;50.448;18.824;2023-04-05T07:50:48;98220.75;;;4.96;46.18
67397;BME280;57728;50.448;18.824;2023-04-05T07:52:49;98245.00;;;5.11;45.46
67397;BME280;57728;50.448;18.824;2023-04-05T07:54:51;98290.75;;;5.34;45.10
67397;BME280;57728;50.448;18.824;2023-04-05T07:56:52;98207.69;;;4.78;44.71
67397;BME280;57728;50.448;18.824;2023-04-05T07:58:55;98236.47;;;4.93;44.31
67397;BME280;57728;50.448;18.824;2023-04-05T08:00:59;98211.78;;;4.74;44.01
67397;BME280;57728;50.448;18.824;2023-04-05T08:03:04;98227.94;;;4.89;44.40
67397;BME280;57728;50.448;18.824;2023-04-05T08:05:06;98237.31;;;4.93;43.83
67397;BME280;57728;50.448;18.824;2023-04-05T08:07:08;98264.28;;;5.08;43.25
67397;BME280;57728;50.448;18.824;2023-04-05T08:09:09;98292.94;;;5.09;43.22
67397;BME280;57728;50.448;18.824;2023-04-05T08:11:12;98300.47;;;4.99;43.32
67397;BME280;57728;50.448;18.824;2023-04-05T08:13:14;98270.63;;;4.86;43.84
67397;BME280;57728;50.448;18.824;2023-04-05T08:15:16;98292.94;;;5.09;43.21
67397;BME280;57728;50.448;18.824;2023-04-05T08:17:17;98295.44;;;5.11;42.39
67397;BME280;57728;50.448;18.824;2023-04-05T08:19:19;98260.56;;;4.94;42.43
67397;BME280;57728;50.448;18.824;2023-04-05T08:21:22;98234.94;;;4.84;42.35
67397;BME280;57728;50.448;18.824;2023-04-05T08:23:24;98212.59;;;4.90;42.04
67397;BME280;57728;50.448;18.824;2023-04-05T08:25:26;98289.13;;;5.62;41.89
67397;BME280;57728;50.448;18.824;2023-04-05T08:27:27;98297.34;;;5.75;41.01
67397;BME280;57728;50.448;18.824;2023-04-05T08:29:28;98311.22;;;5.87;41.18
67397;BME280;57728;50.448;18.824;2023-04-05T08:31:30;98291.66;;;6.07;41.17
67397;BME280;57728;50.448;18.824;2023-04-05T08:33:33;98231.38;;;5.84;41.20
67397;BME280;57728;50.448;18.824;2023-04-05T08:35:35;98259.84;;;6.09;40.57
67397;BME280;57728;50.448;18.824;2023-04-05T08:37:38;98261.97;;;6.13;40.85
67397;BME280;57728;50.448;18.824;2023-04-05T08:39:39;98263.28;;;6.24;40.08
67397;BME280;57728;50.448;18.824;2023-04-05T08:41:52;98282.81;;;6.48;39.83
67397;BME280;57728;50.448;18.824;2023-04-05T08:44:00;98168.34;;;5.77;40.00
67397;BME280;57728;50.448;18.824;2023-04-05T08:46:08;98286.34;;;6.48;39.58
67397;BME280;57728;50.448;18.824;2023-04-05T08:48:09;98278.88;;;6.50;39.77
67397;BME280;57728;50.448;18.824;2023-04-05T08:50:12;98281.47;;;6.72;39.84
67397;BME280;57728;50.448;18.824;2023-04-05T08:52:14;98189.69;;;6.29;38.82
67397;BME280;57728;50.448;18.824;2023-04-05T08:54:16;98256.59;;;6.97;38.78
67397;BME280;57728;50.448;18.824;2023-04-05T08:56:20;98277.09;;;7.13;38.73
67397;BME280;57728;50.448;18.824;2023-04-05T08:58:27;98253.97;;;7.10;38.87
67397;BME280;57728;50.448;18.824;2023-04-05T09:00:29;98277.78;;;7.35;38.58
67397;BME280;57728;50.448;18.824;2023-04-05T09:02:32;98277.56;;;7.36;38.29
67397;BME280;57728;50.448;18.824;2023-04-05T09:04:41;98243.34;;;7.09;38.33
67397;BME280;57728;50.448;18.824;2023-04-05T09:06:46;98214.72;;;6.86;38.01
67397;BME280;57728;50.448;18.824;2023-04-05T09:08:51;98280.47;;;7.35;37.80
67397;BME280;57728;50.448;18.824;2023-04-05T09:10:52;98264.50;;;7.80;37.06
67397;BME280;57728;50.448;18.824;2023-04-05T09:12:54;98153.19;;;7.42;37.07
67397;BME280;57728;50.448;18.824;2023-04-05T09:14:59;98280.13;;;8.72;36.05
67397;BME280;57728;50.448;18.824;2023-04-05T09:17:01;98256.13;;;8.62;35.42
67397;BME280;57728;50.448;18.824;2023-04-05T09:19:04;98280.75;;;8.74;35.60
67397;BME280;57728;50.448;18.824;2023-04-05T09:21:07;98236.75;;;8.45;35.46
67397;BME280;57728;50.448;18.824;2023-04-05T09:23:10;98240.06;;;8.67;35.96
67397;BME280;57728;50.448;18.824;2023-04-05T09:27:33;98139.56;;;8.15;34.75
67397;BME280;57728;50.448;18.824;2023-04-05T09:29:35;98131.44;;;8.15;34.68
67397;BME280;57728;50.448;18.824;2023-04-05T09:31:43;98209.97;;;9.21;34.46
67397;BME280;57728;50.448;18.824;2023-04-05T09:33:46;98253.19;;;9.93;33.80
67397;BME280;57728;50.448;18.824;2023-04-05T09:35:49;98122.72;;;10.05;34.15
67397;BME280;57728;50.448;18.824;2023-04-05T09:37:53;98265.75;;;11.79;32.97
67397;BME280;57728;50.448;18.824;2023-04-05T09:40:03;98272.38;;;12.02;31.93
67397;BME280;57728;50.448;18.824;2023-04-05T09:42:10;98180.56;;;11.23;31.98
67397;BME280;57728;50.448;18.824;2023-04-05T09:44:15;98274.25;;;11.41;31.24
67397;BME280;57728;50.448;18.824;2023-04-05T09:46:34;98226.81;;;10.62;31.58
67397;BME280;57728;50.448;18.824;2023-04-05T09:48:46;98261.94;;;11.38;31.61
67397;BME280;57728;50.448;18.824;2023-04-05T09:50:48;98263.81;;;11.38;30.24
67397;BME280;57728;50.448;18.824;2023-04-05T09:52:50;98262.00;;;11.62;30.23
67397;BME280;57728;50.448;18.824;2023-04-05T09:54:54;98236.28;;;11.27;29.99
67397;BME280;57728;50.448;18.824;2023-04-05T09:56:57;98262.19;;;10.99;29.63
67397;BME280;57728;50.448;18.824;2023-04-05T09:59:10;98231.19;;;10.82;31.13
67397;BME280;57728;50.448;18.824;2023-04-05T10:01:13;98233.44;;;11.64;31.21
67397;BME280;57728;50.448;18.824;2023-04-05T10:03:15;98245.84;;;11.91;29.78
67397;BME280;57728;50.448;18.824;2023-04-05T10:05:17;98233.63;;;11.93;29.27
67397;BME280;57728;50.448;18.824;2023-04-05T10:07:19;98254.22;;;11.77;29.13
67397;BME280;57728;50.448;18.824;2023-04-05T10:09:20;98256.13;;;11.46;28.72
67397;BME280;57728;50.448;18.824;2023-04-05T10:11:23;98192.09;;;10.58;29.79
67397;BME280;57728;50.448;18.824;2023-04-05T10:13:25;98257.22;;;10.59;30.21
67397;BME280;57728;50.448;18.824;2023-04-05T10:15:28;98217.38;;;9.96;30.36
67397;BME280;57728;50.448;18.824;2023-04-05T10:17:42;98255.03;;;9.67;30.89
67397;BME280;57728;50.448;18.824;2023-04-05T10:20:13;98171.59;;;8.58;31.27
67397;BME280;57728;50.448;18.824;2023-04-05T10:22:35;98265.06;;;8.83;31.42
67397;BME280;57728;50.448;18.824;2023-04-05T10:25:11;98267.56;;;8.84;32.32
67397;BME280;57728;50.448;18.824;2023-04-05T10:27:30;98211.81;;;9.20;32.02
67397;BME280;57728;50.448;18.824;2023-04-05T10:29:51;98249.56;;;10.24;31.35
67397;BME280;57728;50.448;18.824;2023-04-05T10:32:29;98251.59;;;10.04;29.50
67397;BME280;57728;50.448;18.824;2023-04-05T10:37:06;98253.56;;;9.33;30.64
67397;BME280;57728;50.448;18.824;2023-04-05T10:41:17;98213.78;;;11.01;30.57
67397;BME280;57728;50.448;18.824;2023-04-05T10:43:24;98094.59;;;11.51;29.48
67397;BME280;57728;50.448;18.824;2023-04-05T10:45:27;98232.81;;;12.99;28.08
67397;BME280;57728;50.448;18.824;2023-04-05T10:47:35;98058.19;;;12.04;28.30
67397;BME280;57728;50.448;18.824;2023-04-05T10:49:45;98038.53;;;11.67;28.16
67397;BME280;57728;50.448;18.824;2023-04-05T10:51:49;98207.72;;;12.26;28.31
67397;BME280;57728;50.448;18.824;2023-04-05T10:53:53;98218.75;;;12.08;27.95
67397;BME280;57728;50.448;18.824;2023-04-05T10:55:56;98219.28;;;11.44;27.68
67397;BME280;57728;50.448;18.824;2023-04-05T10:57:59;98229.91;;;10.84;28.49
67397;BME280;57728;50.448;18.824;2023-04-05T11:00:03;98232.28;;;10.37;29.24
67397;BME280;57728;50.448;18.824;2023-04-05T11:02:06;98164.88;;;9.70;29.61
67397;BME280;57728;50.448;18.824;2023-04-05T11:04:14;98187.25;;;10.16;29.95
67397;BME280;57728;50.448;18.824;2023-04-05T11:06:30;98187.41;;;11.14;29.21
67397;BME280;57728;50.448;18.824;2023-04-05T11:08:32;98025.94;;;11.18;28.75
67397;BME280;57728;50.448;18.824;2023-04-05T11:10:36;98223.31;;;13.59;28.07
67397;BME280;57728;50.448;18.824;2023-04-05T11:14:46;98126.94;;;15.41;27.43
67397;BME280;57728;50.448;18.824;2023-04-05T11:16:50;98087.19;;;16.24;26.47